Detalii statie AGRONICOLESCU [00001CFA]

Toti senzorii

Date Temperatura solului [C]Precipitatii [mm]Voltaj baterie [mV]Leaf Wetness [Min]HC Air temperature [C]HC Relative humidity [%]Punctul de roua [C]
medieminmaxsumaultimatimpmedieminmaxmediemediemin
2018-12-09 16:00:00 0 7020 3.09 2.73 3.35 0 0 0
2018-12-09 17:00:00 0 6992 2.36 2.22 2.7 0 0 0
2018-12-09 18:00:00 0 6972 2.03 1.86 2.19 0 0 0
2018-12-09 19:00:00 0 6972 1.72 1.62 1.86 0 0 0
2018-12-09 20:00:00 0 6962 1.38 1.32 1.5 0 0 0
2018-12-09 21:00:00 0 6962 1.18 1.09 1.36 0 0 0
2018-12-09 22:00:00 0 6962 0.99 0.85 1.12 0 0 0
2018-12-09 23:00:00 0 6962 0.77 0.63 0.88 0 0 0
2018-12-10 00:00:00 0.2 6962 0.38 0.18 0.69 0 0 0
2018-12-10 01:00:00 0 6952 0.02 -0.37 0.23 0 0 0
2018-12-10 02:00:00 0 6952 -0.53 -0.65 -0.39 0 0 0
2018-12-10 03:00:00 0 6942 -0.92 -1.23 -0.5 0 0 0
2018-12-10 04:00:00 0 6942 -1.1 -1.31 -0.69 0 0 0
2018-12-10 05:00:00 0 6942 -1.52 -1.79 -1.15 0 0 0
2018-12-10 06:00:00 0 6942 -1.84 -1.95 -1.76 0 0 0
2018-12-10 07:00:00 0 6942 -1.95 -2.09 -1.81 0 0 0
2018-12-10 08:00:00 0 6932 -2.04 -2.2 -1.95 0 0 0
2018-12-10 09:00:00 0 6992 -2.13 -2.34 -1.93 0 0 0
2018-12-10 10:00:00 0 7030 -1.79 -1.91 -1.58 0 0 0
2018-12-10 11:00:00 0.2 7412 -0.69 -1.63 0.72 0 0 0
2018-12-10 12:00:00 0 7226 1.34 0.75 2.23 0 0 0
2018-12-10 13:00:00 0 7216 3.41 2.33 4.49 0 0 0
2018-12-10 14:00:00 0 7284 4.88 4.49 5.31 0 0 0
2018-12-10 15:00:00 0 7176 5.08 4.9 5.48 0 0 0
2018-12-10 16:00:00 0 7138 4.94 4.81 5.06 0 0 0
2018-12-10 17:00:00 0 7088 3.69 2.66 4.6 0 0 0
2018-12-10 18:00:00 0 7060 2.06 1.39 2.67 0 0 0
2018-12-10 19:00:00 0 7040 0.65 -0.3 1.87 0 0 0
2018-12-10 20:00:00 0 7030 0.01 -0.25 0.11 0 0 0
2018-12-10 21:00:00 0 7020 0.31 0.11 0.48 0 0 0
2018-12-10 22:00:00 0 7010 0.53 0.46 0.61 0 0 0
2018-12-10 23:00:00 0 6992 0.29 -0.01 0.51 0 0 0
2018-12-11 00:00:00 0 6992 -0.38 -0.58 -0.15 0 0 0
2018-12-11 01:00:00 0 6962 -0.76 -0.93 -0.49 0 0 0
2018-12-11 02:00:00 0 6962 -0.73 -0.89 -0.42 0 0 0
2018-12-11 03:00:00 0 6952 -0.46 -0.51 -0.39 0 0 0
2018-12-11 04:00:00 0 6952 -0.42 -0.49 -0.4 0 0 0
2018-12-11 05:00:00 0 6942 -0.2 -0.34 0.05 0 0 0
2018-12-11 06:00:00 0 6952 -0.05 -0.26 0.16 0 0 0
2018-12-11 07:00:00 0 6942 -0.41 -0.51 -0.31 0 0 0
2018-12-11 08:00:00 0 6942 -0.2 -0.34 -0.13 0 0 0
2018-12-11 09:00:00 0 6972 -0.01 -0.11 0.29 0 0 0
2018-12-11 10:00:00 0 7040 1.01 0.38 1.62 0 0 0
2018-12-11 11:00:00 0 7108 2.41 1.74 3.37 0 0 0
2018-12-11 12:00:00 0 7196 3.81 3.4 4.26 0 0 0
2018-12-11 13:00:00 0 7118 3.85 3.62 4.04 0 0 0
2018-12-11 14:00:00 0 7080 3.29 3.03 3.64 0 0 0
2018-12-11 15:00:00 0 7020 2.68 2.52 2.92 0 0 0